Thatcher, Utah
Current Conditions -  °F | °C
As of 3:15 AM on Saturday 22 Nov 2014 (Local Time) from KBMC Reporting Station
Overcast Overcast  
Wind Chill: 33°   Ceiling: 9000
Heat Index: 33°   Visibility: 7mi
Dew Point: 26°   Wind: 3mph
Humidity: 75%   Direction: 90°E
Pressure: 29.96"   Gusts: NA
Location:  41.6836°N, 112.26°W
Report Text: KBMC 221015Z AUTO 09003KT 7SM OVC090 01/M03 A2996 RMK AO1 T00081031
Loading
Personal Weather Stations






























Interactive Weather Map New forecast layout! Learn more

10-Day Weather Forecast

Advertisements
Track Severe Weather on mobile